Time;durP1;ratioP1;P1;durP2;ratioP2;P2;SDS_P1;SDS_P2;PMS_P1;PMS_P2;Temp;Humidity;BMP_temperature;BMP_pressure;BME280_temperature;BME280_humidity;BME280_pressure;Samples;Min_cycle;Max_cycle;Signal;HPM_P1;HPM_P2
2021/01/24 00:00:06;;;;;;;1.33;0.30;;;5.40;96.40;;;;;;4110268;28;20141;-93
2021/01/24 00:02:07;;;;;;;;;;;5.40;96.30;;;;;;4119380;28;20047;-92
2021/01/24 00:04:08;;;;;;;0.10;0.10;;;5.50;96.30;;;;;;4150309;28;19928;-92
2021/01/24 00:06:10;;;;;;;0.10;0.10;;;5.50;96.00;;;;;;4137457;28;20145;-93
2021/01/24 00:08:11;;;;;;;0.17;0.17;;;5.60;96.20;;;;;;4121033;28;20070;-92
2021/01/24 00:10:13;;;;;;;0.28;0.28;;;5.50;95.90;;;;;;4128724;28;20318;-93
2021/01/24 00:12:14;;;;;;;0.25;0.25;;;5.50;95.80;;;;;;4142839;28;20053;-94
2021/01/24 00:14:15;;;;;;;0.30;0.30;;;5.50;95.90;;;;;;4118132;28;20153;-93
2021/01/24 00:16:17;;;;;;;0.10;0.10;;;5.50;96.10;;;;;;4149974;28;20080;-92
2021/01/24 00:18:18;;;;;;;0.20;0.20;;;5.50;96.30;;;;;;4121598;28;20055;-92
2021/01/24 00:20:19;;;;;;;0.15;0.15;;;5.40;96.50;;;;;;4117801;28;20051;-92
2021/01/24 00:22:21;;;;;;;0.10;0.10;;;5.40;96.70;;;;;;4118366;28;20138;-93
2021/01/24 00:24:22;;;;;;;0.32;0.25;;;5.40;96.50;;;;;;4106826;28;20687;-92
2021/01/24 00:26:23;;;;;;;0.20;0.20;;;5.30;96.70;;;;;;4107220;28;20560;-93
2021/01/24 00:28:26;;;;;;;0.20;0.20;;;5.30;96.60;;;;;;4134383;28;20424;-92
2021/01/24 00:30:27;;;;;;;0.10;0.10;;;5.40;96.50;;;;;;4136738;28;20161;-92
2021/01/24 00:32:28;;;;;;;0.20;0.20;;;5.40;96.70;;;;;;4119787;28;20142;-92
2021/01/24 00:34:30;;;;;;;0.47;0.47;;;5.30;96.90;;;;;;4147325;28;20058;-92
2021/01/24 00:36:31;;;;;;;0.10;0.10;;;5.30;97.10;;;;;;4129277;28;20050;-92
2021/01/24 00:38:33;;;;;;;0.10;0.10;;;5.30;97.40;;;;;;4145575;28;20474;-92
2021/01/24 00:40:35;;;;;;;0.10;0.10;;;5.30;97.30;;;;;;4134069;28;20517;-92
2021/01/24 00:42:37;;;;;;;0.20;0.20;;;5.20;97.60;;;;;;4125501;28;20050;-92
2021/01/24 00:44:38;;;;;;;0.10;0.10;;;5.20;97.30;;;;;;4143146;28;20054;-92
2021/01/24 00:46:40;;;;;;;0.22;0.22;;;5.20;97.70;;;;;;4117584;28;20122;-93
2021/01/24 00:48:41;;;;;;;0.13;0.13;;;5.20;97.70;;;;;;4123441;28;20057;-92
2021/01/24 00:50:42;;;;;;;0.10;0.10;;;5.20;97.60;;;;;;4126890;28;20050;-92
2021/01/24 00:52:44;;;;;;;0.10;0.10;;;5.20;97.50;;;;;;4131574;28;20050;-92
2021/01/24 00:54:45;;;;;;;0.10;0.10;;;5.20;97.60;;;;;;4140969;28;20117;-92
2021/01/24 00:56:46;;;;;;;1.88;0.40;;;5.30;97.40;;;;;;4161072;28;20183;-92
2021/01/24 00:58:47;;;;;;;0.10;0.10;;;5.30;97.10;;;;;;4118067;28;20054;-92
2021/01/24 01:00:49;;;;;;;0.22;0.20;;;5.30;97.30;;;;;;4116826;28;20051;-92
2021/01/24 01:02:50;;;;;;;0.30;0.30;;;5.30;97.70;;;;;;4133099;28;20129;-93
2021/01/24 01:04:54;;;;;;;0.10;0.10;;;5.30;97.70;;;;;;4117443;28;20058;-93
2021/01/24 01:06:56;;;;;;;0.30;0.30;;;5.20;97.90;;;;;;4137716;28;20061;-92
2021/01/24 01:08:58;;;;;;;0.10;0.10;;;5.20;97.70;;;;;;4115203;28;20133;-93
2021/01/24 01:11:00;;;;;;;0.20;0.20;;;5.20;97.80;;;;;;4147494;28;20072;-92
2021/01/24 01:13:01;;;;;;;0.20;0.20;;;5.20;97.60;;;;;;4126883;28;20060;-92
2021/01/24 01:15:04;;;;;;;0.22;0.10;;;5.20;97.90;;;;;;4125636;28;20537;-92
2021/01/24 01:17:05;;;;;;;0.10;0.10;;;5.20;97.80;;;;;;4130723;28;20495;-93
2021/01/24 01:19:07;;;;;;;0.30;0.30;;;5.20;97.50;;;;;;4121160;28;20149;-92
2021/01/24 01:21:08;;;;;;;0.20;0.20;;;5.20;97.50;;;;;;4136932;28;20056;-92
2021/01/24 01:23:09;;;;;;;0.20;0.20;;;5.20;97.70;;;;;;4103052;28;20051;-93
2021/01/24 01:25:11;;;;;;;0.10;0.10;;;5.20;98.20;;;;;;4120857;28;20137;-93
2021/01/24 01:27:12;;;;;;;0.20;0.20;;;5.10;98.40;;;;;;4120525;28;20316;-93
2021/01/24 01:29:13;;;;;;;0.30;0.22;;;5.10;98.40;;;;;;4130123;28;20050;-92
2021/01/24 01:31:15;;;;;;;0.30;0.28;;;5.10;98.40;;;;;;4120911;28;20507;-94
2021/01/24 01:33:16;;;;;;;1.23;0.82;;;5.10;98.20;;;;;;4117165;28;20042;-94
2021/01/24 01:35:17;;;;;;;0.10;0.10;;;5.10;98.20;;;;;;4132373;28;20054;-92
2021/01/24 01:37:19;;;;;;;0.32;0.32;;;5.10;98.30;;;;;;4136922;28;20150;-93
2021/01/24 01:39:20;;;;;;;0.13;0.13;;;5.10;98.10;;;;;;4127808;28;20046;-93
2021/01/24 01:41:21;;;;;;;0.10;0.10;;;5.10;98.30;;;;;;4128293;28;20061;-93
2021/01/24 01:43:23;;;;;;;0.10;0.10;;;5.10;98.20;;;;;;4132870;28;20062;-93
2021/01/24 01:45:24;;;;;;;0.30;0.30;;;5.20;97.90;;;;;;4124375;28;20054;-92
2021/01/24 01:47:26;;;;;;;0.20;0.20;;;5.20;98.00;;;;;;4112572;28;20131;-93
2021/01/24 01:49:27;;;;;;;1.27;0.65;;;5.20;98.20;;;;;;4100731;28;20044;-92
2021/01/24 01:51:29;;;;;;;0.10;0.10;;;5.20;98.10;;;;;;4117643;28;20061;-93
2021/01/24 01:53:30;;;;;;;0.32;0.30;;;5.10;98.10;;;;;;4132347;28;20050;-92
2021/01/24 01:55:32;;;;;;;0.10;0.10;;;5.10;98.00;;;;;;4146167;28;20060;-93
2021/01/24 01:57:33;;;;;;;4.50;0.30;;;5.10;98.00;;;;;;4138299;28;20062;-92
2021/01/24 01:59:34;;;;;;;0.10;0.10;;;5.00;98.10;;;;;;4114619;28;20047;-93
2021/01/24 02:02:05;;;;;;;0.20;0.20;;;5.00;98.00;;;;;;4146844;28;20421;-91
2021/01/24 02:04:23;;;;;;;0.30;0.30;;;5.00;98.20;;;;;;4119077;28;20050;-92
2021/01/24 02:06:31;;;;;;;0.20;0.20;;;5.00;98.20;;;;;;4117920;28;20056;-92
2021/01/24 02:08:40;;;;;;;0.10;0.10;;;5.00;98.00;;;;;;4143697;28;20396;-93
2021/01/24 02:10:58;;;;;;;0.20;0.20;;;5.00;97.80;;;;;;4148170;28;20061;-93
2021/01/24 02:13:03;;;;;;;0.10;0.10;;;5.00;97.90;;;;;;4152290;28;20060;-92
2021/01/24 02:15:05;;;;;;;0.40;0.40;;;4.90;98.10;;;;;;4131645;28;20042;-93
2021/01/24 02:17:11;;;;;;;0.10;0.10;;;4.90;98.30;;;;;;4130724;28;20062;-92
2021/01/24 02:19:20;;;;;;;0.10;0.10;;;4.80;98.20;;;;;;4135811;28;20046;-92
2021/01/24 02:21:31;;;;;;;0.10;0.10;;;4.80;98.20;;;;;;4135759;28;20042;-93
2021/01/24 02:23:33;;;;;;;1.27;1.27;;;4.70;98.40;;;;;;4148032;28;20050;-94
2021/01/24 02:25:55;;;;;;;0.35;0.35;;;4.80;98.50;;;;;;4132415;28;20085;-92
2021/01/24 02:28:32;;;;;;;0.20;0.20;;;4.70;98.60;;;;;;4143980;28;20057;-92
2021/01/24 02:30:35;;;;;;;0.25;0.25;;;4.70;98.90;;;;;;4160043;28;20057;-92
2021/01/24 02:32:36;;;;;;;0.75;0.50;;;4.60;98.70;;;;;;4144052;28;20046;-92
2021/01/24 02:34:38;;;;;;;0.10;0.10;;;4.60;98.80;;;;;;4117591;28;20059;-92
2021/01/24 02:36:39;;;;;;;0.10;0.10;;;4.60;98.90;;;;;;4134613;28;20544;-92
2021/01/24 02:38:40;;;;;;;0.20;0.20;;;4.60;98.90;;;;;;4118008;28;20137;-93
2021/01/24 02:40:41;;;;;;;0.15;0.15;;;4.50;98.90;;;;;;4117034;28;20049;-93
2021/01/24 02:42:43;;;;;;;0.10;0.10;;;4.50;98.80;;;;;;4151630;28;20049;-92
2021/01/24 02:44:44;;;;;;;0.35;0.35;;;4.50;98.70;;;;;;4115425;28;20158;-92
2021/01/24 02:46:45;;;;;;;0.10;0.10;;;4.50;97.50;;;;;;4115875;28;20054;-93
2021/01/24 02:48:47;;;;;;;0.10;0.10;;;4.50;97.80;;;;;;4127413;28;20054;-93
2021/01/24 02:50:51;;;;;;;0.10;0.10;;;4.50;97.90;;;;;;4143420;28;20120;-93
2021/01/24 02:52:53;;;;;;;0.10;0.10;;;4.50;97.80;;;;;;4129835;28;20054;-94
2021/01/24 02:54:54;;;;;;;0.10;0.10;;;4.50;98.00;;;;;;4126120;28;20129;-92
2021/01/24 02:56:55;;;;;;;0.13;0.10;;;4.40;97.60;;;;;;4119367;28;20073;-93
2021/01/24 02:58:56;;;;;;;0.10;0.10;;;4.40;97.50;;;;;;4132645;28;20437;-92
2021/01/24 03:00:58;;;;;;;0.10;0.10;;;4.40;97.30;;;;;;4135928;28;20133;-92
2021/01/24 03:02:59;;;;;;;0.20;0.20;;;4.40;97.20;;;;;;4135533;28;20073;-92
2021/01/24 03:05:02;;;;;;;0.10;0.10;;;4.40;97.20;;;;;;4114876;28;20058;-93
2021/01/24 03:07:04;;;;;;;0.30;0.30;;;4.30;97.40;;;;;;4136070;28;20498;-93
2021/01/24 03:09:05;;;;;;;0.43;0.30;;;4.30;97.10;;;;;;4137353;28;20540;-93
2021/01/24 03:11:11;;;;;;;0.15;0.15;;;4.30;96.90;;;;;;4144340;28;20056;-93
2021/01/24 03:13:49;;;;;;;0.17;0.17;;;4.30;97.00;;;;;;4137876;28;20054;-92
2021/01/24 03:15:51;;;;;;;0.40;0.30;;;4.30;96.70;;;;;;4135080;28;20105;-92
2021/01/24 03:17:52;;;;;;;0.10;0.10;;;4.20;96.90;;;;;;4125107;28;20131;-92
2021/01/24 03:19:53;;;;;;;0.30;0.30;;;4.20;96.40;;;;;;4131053;28;20101;-93
2021/01/24 03:21:55;;;;;;;1.25;0.63;;;4.10;96.70;;;;;;4119260;28;20055;-92
2021/01/24 03:23:56;;;;;;;0.20;0.20;;;4.10;96.90;;;;;;4118765;28;20047;-93
2021/01/24 03:25:57;;;;;;;0.20;0.20;;;4.10;96.80;;;;;;4099933;28;20066;-92
2021/01/24 03:27:59;;;;;;;0.20;0.20;;;4.10;97.00;;;;;;4134939;28;20046;-93
2021/01/24 03:30:00;;;;;;;0.20;0.20;;;4.00;97.20;;;;;;4137838;28;20042;-93
2021/01/24 03:32:01;;;;;;;1.15;0.43;;;4.00;97.20;;;;;;4118475;28;20133;-93
2021/01/24 03:34:03;;;;;;;0.10;0.10;;;4.00;97.40;;;;;;4122892;28;20146;-93
2021/01/24 03:36:05;;;;;;;0.20;0.20;;;4.00;97.60;;;;;;4140602;28;20077;-92
2021/01/24 03:38:06;;;;;;;0.10;0.10;;;4.00;97.50;;;;;;4129515;28;20180;-94
2021/01/24 03:40:08;;;;;;;0.20;0.20;;;4.00;97.60;;;;;;4175424;28;20121;-92
2021/01/24 03:42:09;;;;;;;0.17;0.17;;;3.90;97.60;;;;;;4140328;28;20114;-94
2021/01/24 03:44:10;;;;;;;0.38;0.38;;;3.90;97.90;;;;;;4125934;28;20076;-93
2021/01/24 03:46:12;;;;;;;0.20;0.20;;;3.90;98.00;;;;;;4133362;28;20046;-93
2021/01/24 03:48:13;;;;;;;0.10;0.10;;;3.90;98.20;;;;;;4127658;28;20055;-93
2021/01/24 03:50:15;;;;;;;0.20;0.20;;;3.80;98.30;;;;;;4118035;28;20047;-93
2021/01/24 03:52:16;;;;;;;0.10;0.10;;;3.80;98.40;;;;;;4138900;28;20058;-92
2021/01/24 03:54:17;;;;;;;0.20;0.20;;;3.80;98.20;;;;;;4121605;28;20047;-92
2021/01/24 03:56:19;;;;;;;0.30;0.30;;;3.70;98.40;;;;;;4117974;28;20125;-93
2021/01/24 03:58:20;;;;;;;0.15;0.15;;;3.60;98.20;;;;;;4142348;28;20050;-93
2021/01/24 04:00:22;;;;;;;0.20;0.20;;;3.60;98.20;;;;;;4124741;28;20043;-93
2021/01/24 04:02:23;;;;;;;1.05;0.35;;;3.50;98.20;;;;;;4149192;28;20549;-93
2021/01/24 04:04:24;;;;;;;0.17;0.17;;;3.50;97.90;;;;;;4103268;28;20086;-93
2021/01/24 04:06:25;;;;;;;0.20;0.20;;;3.50;97.70;;;;;;4135344;28;20072;-93
2021/01/24 04:08:27;;;;;;;0.10;0.10;;;3.50;98.00;;;;;;4117757;28;20049;-94
2021/01/24 04:10:28;;;;;;;0.17;0.17;;;3.40;97.90;;;;;;4134058;28;20066;-93
2021/01/24 04:12:29;;;;;;;0.20;0.20;;;3.40;97.90;;;;;;4125155;28;20061;-94
2021/01/24 04:14:31;;;;;;;0.10;0.10;;;3.40;97.60;;;;;;4129491;28;20138;-93
2021/01/24 04:16:32;;;;;;;0.73;0.73;;;3.40;97.80;;;;;;4134224;28;20546;-93
2021/01/24 04:18:34;;;;;;;0.10;0.10;;;3.40;97.90;;;;;;4120462;28;20066;-93
2021/01/24 04:20:35;;;;;;;0.15;0.15;;;3.30;97.90;;;;;;4108099;28;20046;-93
2021/01/24 04:22:36;;;;;;;0.20;0.20;;;3.30;97.70;;;;;;4131967;28;20060;-93
2021/01/24 04:24:38;;;;;;;0.30;0.30;;;3.20;97.50;;;;;;4139048;28;20053;-92
2021/01/24 04:26:39;;;;;;;0.13;0.10;;;3.30;97.40;;;;;;4109303;28;20067;-92
2021/01/24 04:28:40;;;;;;;0.20;0.20;;;3.20;97.40;;;;;;4119337;28;20050;-93
2021/01/24 04:30:41;;;;;;;0.10;0.10;;;3.20;97.00;;;;;;4120325;28;20093;-92
2021/01/24 04:32:43;;;;;;;0.20;0.20;;;3.20;97.10;;;;;;4111770;28;20050;-93
2021/01/24 04:34:44;;;;;;;0.10;0.10;;;3.10;97.30;;;;;;4134975;28;20061;-93
2021/01/24 04:36:45;;;;;;;0.30;0.30;;;3.10;97.30;;;;;;4137955;28;20061;-93
2021/01/24 04:38:47;;;;;;;0.20;0.20;;;3.00;97.10;;;;;;4134217;28;20054;-93
2021/01/24 04:40:48;;;;;;;0.20;0.20;;;3.00;96.70;;;;;;4154076;28;20121;-93
2021/01/24 04:42:49;;;;;;;0.10;0.10;;;3.00;96.60;;;;;;4148875;28;20081;-95
2021/01/24 04:44:51;;;;;;;0.20;0.20;;;2.90;96.60;;;;;;4161928;28;20041;-92
2021/01/24 04:46:52;;;;;;;0.20;0.20;;;2.90;96.70;;;;;;4153020;28;20097;-93
2021/01/24 04:48:53;;;;;;;0.10;0.10;;;2.90;96.80;;;;;;4139010;28;20058;-92
2021/01/24 04:50:55;;;;;;;0.10;0.10;;;2.80;96.70;;;;;;4137616;28;20056;-92
2021/01/24 04:52:57;;;;;;;0.20;0.20;;;2.80;96.90;;;;;;4117076;28;20117;-93
2021/01/24 04:54:58;;;;;;;0.57;0.40;;;2.80;96.70;;;;;;4126607;28;20152;-93
2021/01/24 04:57:03;;;;;;;0.22;0.22;;;2.70;96.80;;;;;;4132625;28;20104;-93
2021/01/24 04:59:04;;;;;;;0.20;0.20;;;2.70;96.80;;;;;;4130955;28;20046;-92
2021/01/24 05:01:05;;;;;;;0.20;0.20;;;2.70;96.90;;;;;;4127379;28;20061;-92
2021/01/24 05:03:07;;;;;;;0.28;0.28;;;2.60;97.00;;;;;;4159424;28;20049;-94
2021/01/24 05:05:09;;;;;;;0.75;0.40;;;2.60;96.90;;;;;;4116645;28;20058;-92
2021/01/24 05:07:12;;;;;;;0.20;0.20;;;2.60;97.10;;;;;;4121622;28;20057;-93
2021/01/24 05:09:17;;;;;;;0.20;0.20;;;2.60;97.10;;;;;;4133249;28;20141;-92
2021/01/24 05:11:20;;;;;;;0.22;0.22;;;2.60;97.00;;;;;;4133527;28;20050;-92
2021/01/24 05:13:27;;;;;;;0.22;0.22;;;2.50;97.10;;;;;;4158129;28;20049;-92
2021/01/24 05:15:29;;;;;;;0.20;0.20;;;2.50;97.10;;;;;;4135409;28;20549;-93
2021/01/24 05:17:30;;;;;;;0.30;0.30;;;2.50;97.30;;;;;;4150575;28;20136;-93
2021/01/24 05:19:37;;;;;;;0.57;0.22;;;2.50;97.00;;;;;;4135900;28;20081;-92
2021/01/24 05:21:39;;;;;;;0.10;0.10;;;2.40;96.90;;;;;;4121758;28;20050;-92
2021/01/24 05:23:40;;;;;;;0.28;0.28;;;2.40;96.90;;;;;;4128721;28;20046;-92
2021/01/24 05:25:41;;;;;;;0.20;0.10;;;2.40;97.00;;;;;;4133189;28;20137;-93
2021/01/24 05:27:43;;;;;;;0.10;0.10;;;2.40;96.70;;;;;;4124595;28;20050;-93
2021/01/24 05:29:44;;;;;;;0.20;0.20;;;2.40;96.80;;;;;;4125162;28;20059;-92
2021/01/24 05:31:46;;;;;;;0.40;0.40;;;2.40;96.60;;;;;;4149400;28;20449;-92
2021/01/24 05:33:48;;;;;;;0.28;0.22;;;2.30;96.80;;;;;;4121060;28;20050;-92
2021/01/24 05:35:50;;;;;;;0.10;0.10;;;2.30;96.80;;;;;;4132530;28;20538;-92
2021/01/24 05:37:52;;;;;;;0.25;0.25;;;2.30;96.70;;;;;;4117113;28;20051;-92
2021/01/24 05:39:53;;;;;;;0.38;0.38;;;2.30;96.80;;;;;;4137051;28;20058;-92
2021/01/24 05:41:56;;;;;;;0.20;0.20;;;2.20;96.90;;;;;;4137571;28;20050;-92
2021/01/24 05:43:57;;;;;;;0.20;0.20;;;2.20;97.00;;;;;;4147959;28;20046;-92
2021/01/24 05:45:59;;;;;;;0.20;0.20;;;2.20;96.90;;;;;;4142078;28;20077;-93
2021/01/24 05:48:00;;;;;;;0.40;0.40;;;2.20;97.10;;;;;;4147442;28;20132;-92
2021/01/24 05:50:03;;;;;;;1.52;0.70;;;2.20;97.10;;;;;;4147188;28;20082;-93
2021/01/24 05:52:08;;;;;;;0.10;0.10;;;2.10;97.00;;;;;;4101272;28;20059;-93
2021/01/24 05:54:11;;;;;;;0.22;0.20;;;2.20;97.10;;;;;;4131206;28;20049;-92
2021/01/24 05:56:20;;;;;;;0.50;0.50;;;2.10;96.90;;;;;;4143666;28;20051;-92
2021/01/24 05:58:24;;;;;;;0.20;0.20;;;2.10;96.90;;;;;;4161346;28;20076;-91
2021/01/24 06:00:27;;;;;;;0.38;0.38;;;2.10;97.00;;;;;;4156496;28;20046;-93
2021/01/24 06:02:28;;;;;;;0.30;0.30;;;2.10;96.90;;;;;;4149448;28;20069;-92
2021/01/24 06:04:29;;;;;;;0.20;0.20;;;2.10;97.10;;;;;;4135634;28;20089;-92
2021/01/24 06:06:31;;;;;;;0.47;0.47;;;2.10;97.00;;;;;;4125898;28;20057;-92
2021/01/24 06:08:32;;;;;;;0.20;0.20;;;2.10;97.20;;;;;;4122934;28;20575;-93
2021/01/24 06:10:34;;;;;;;0.30;0.30;;;2.00;97.30;;;;;;4144163;28;20057;-92
2021/01/24 06:12:36;;;;;;;0.20;0.20;;;2.00;97.20;;;;;;4133046;28;20517;-92
2021/01/24 06:14:39;;;;;;;0.32;0.32;;;2.00;97.30;;;;;;4165549;28;20498;-92
2021/01/24 06:16:46;;;;;;;0.20;0.20;;;1.90;97.30;;;;;;4165754;28;20045;-92
2021/01/24 06:18:52;;;;;;;0.25;0.25;;;1.90;97.40;;;;;;4149220;28;20054;-92
2021/01/24 06:21:00;;;;;;;0.17;0.17;;;2.00;97.80;;;;;;4140922;28;20498;-92
2021/01/24 06:23:23;;;;;;;0.35;0.35;;;2.00;97.40;;;;;;4147049;28;20045;-93
2021/01/24 06:25:32;;;;;;;0.10;0.10;;;1.90;97.50;;;;;;4117574;28;20055;-92
2021/01/24 06:27:55;;;;;;;0.30;0.30;;;1.90;97.30;;;;;;4124400;28;20515;-93
2021/01/24 06:30:01;;;;;;;0.20;0.20;;;1.90;97.40;;;;;;4139360;28;20537;-93
2021/01/24 06:32:02;;;;;;;0.10;0.10;;;1.90;97.20;;;;;;4118008;28;20066;-91
2021/01/24 06:34:06;;;;;;;0.50;0.50;;;1.90;97.10;;;;;;4132443;28;20046;-92
2021/01/24 06:36:07;;;;;;;0.20;0.20;;;2.00;97.10;;;;;;4137149;28;20105;-92
2021/01/24 06:38:10;;;;;;;0.40;0.40;;;2.00;97.00;;;;;;4116448;28;20061;-92
2021/01/24 06:40:28;;;;;;;0.20;0.20;;;1.90;96.70;;;;;;4132798;28;20137;-92
2021/01/24 06:42:45;;;;;;;0.32;0.32;;;2.00;96.60;;;;;;4134584;28;20058;-93
2021/01/24 06:44:49;;;;;;;0.20;0.20;;;2.00;96.30;;;;;;4148608;28;20564;-93
2021/01/24 06:46:50;;;;;;;0.30;0.30;;;2.00;96.10;;;;;;4132475;28;20133;-92
2021/01/24 06:48:53;;;;;;;0.40;0.28;;;1.90;96.40;;;;;;4147977;28;20053;-92
2021/01/24 06:50:55;;;;;;;0.10;0.10;;;1.90;96.50;;;;;;4147765;28;20433;-91
2021/01/24 06:53:08;;;;;;;0.20;0.20;;;1.90;96.60;;;;;;4132327;28;20133;-92
2021/01/24 06:55:30;;;;;;;0.20;0.20;;;1.90;96.30;;;;;;4148735;28;20050;-91
2021/01/24 06:58:00;;;;;;;0.20;0.20;;;1.90;96.40;;;;;;4149573;28;20108;-92
2021/01/24 07:00:32;;;;;;;0.30;0.30;;;1.90;96.20;;;;;;4150578;28;20121;-93
2021/01/24 07:02:41;;;;;;;0.20;0.20;;;1.90;96.20;;;;;;4142344;28;20054;-91
2021/01/24 07:05:03;;;;;;;0.10;0.10;;;1.90;95.90;;;;;;4116653;28;20066;-92
2021/01/24 07:07:17;;;;;;;0.10;0.10;;;1.90;96.00;;;;;;4145025;28;20049;-92
2021/01/24 07:09:41;;;;;;;0.20;0.20;;;2.00;95.70;;;;;;4164223;28;20059;-93
2021/01/24 07:12:22;;;;;;;0.20;0.20;;;2.00;96.00;;;;;;4148079;28;20054;-91
2021/01/24 07:14:35;;;;;;;0.30;0.30;;;2.00;95.80;;;;;;4141640;28;20061;-93
2021/01/24 07:16:44;;;;;;;0.22;0.22;;;2.00;96.00;;;;;;4148456;28;20144;-93
2021/01/24 07:18:45;;;;;;;0.20;0.20;;;2.00;96.20;;;;;;4144976;28;20349;-94
2021/01/24 07:20:47;;;;;;;0.20;0.20;;;1.90;96.20;;;;;;4132093;28;20050;-93
2021/01/24 07:22:51;;;;;;;0.20;0.20;;;1.90;96.20;;;;;;4132331;28;20376;-93
2021/01/24 07:24:57;;;;;;;0.20;0.20;;;2.00;96.20;;;;;;4116109;28;20050;-93
2021/01/24 07:27:15;;;;;;;0.15;0.15;;;2.00;96.40;;;;;;4136691;28;20074;-92
2021/01/24 07:29:17;;;;;;;0.10;0.10;;;2.00;96.30;;;;;;4128298;28;20042;-92
2021/01/24 07:31:19;;;;;;;0.32;0.32;;;2.00;96.50;;;;;;4115989;28;20058;-92
2021/01/24 07:33:20;;;;;;;0.30;0.30;;;2.00;96.60;;;;;;4115207;28;20059;-87
2021/01/24 07:35:21;;;;;;;0.15;0.15;;;2.00;96.80;;;;;;4146657;28;20046;-85
2021/01/24 07:37:23;;;;;;;0.28;0.28;;;1.90;96.90;;;;;;4150547;28;20475;-86
2021/01/24 07:39:25;;;;;;;0.20;0.20;;;1.90;96.70;;;;;;4118522;28;20121;-86
2021/01/24 07:41:26;;;;;;;0.20;0.20;;;1.90;97.00;;;;;;4134867;28;20050;-87
2021/01/24 07:43:28;;;;;;;0.30;0.30;;;1.90;96.90;;;;;;4133654;28;20056;-86
2021/01/24 07:45:29;;;;;;;0.20;0.20;;;1.90;96.90;;;;;;4163347;28;20049;-87
2021/01/24 07:47:30;;;;;;;0.52;0.52;;;1.90;97.00;;;;;;4147751;28;20042;-86
2021/01/24 07:49:31;;;;;;;0.30;0.30;;;1.90;96.50;;;;;;4133487;28;20046;-86
2021/01/24 07:51:34;;;;;;;0.20;0.20;;;1.90;96.80;;;;;;4134581;28;20049;-85
2021/01/24 07:53:35;;;;;;;0.20;0.20;;;1.90;96.40;;;;;;4131830;28;20535;-86
2021/01/24 07:55:37;;;;;;;0.75;0.68;;;1.90;96.30;;;;;;4132888;28;20060;-86
2021/01/24 07:57:39;;;;;;;0.43;0.43;;;1.90;96.00;;;;;;4134782;28;20094;-86
2021/01/24 07:59:40;;;;;;;0.73;0.40;;;1.90;95.80;;;;;;4148964;28;20045;-85
2021/01/24 08:01:42;;;;;;;0.20;0.20;;;1.90;95.70;;;;;;4148195;28;20124;-85
2021/01/24 08:03:43;;;;;;;0.20;0.20;;;1.90;95.70;;;;;;4118479;28;20550;-85
2021/01/24 08:05:44;;;;;;;0.38;0.38;;;1.90;95.50;;;;;;4124472;28;20506;-85
2021/01/24 08:07:46;;;;;;;0.20;0.20;;;2.00;95.70;;;;;;4131004;28;20137;-88
2021/01/24 08:09:47;;;;;;;0.85;0.63;;;2.00;95.50;;;;;;4134102;28;20054;-85
2021/01/24 08:11:49;;;;;;;0.20;0.20;;;2.00;95.30;;;;;;4142100;28;20049;-85
2021/01/24 08:13:50;;;;;;;0.40;0.40;;;2.00;95.40;;;;;;4163165;28;20064;-85
2021/01/24 08:15:51;;;;;;;0.30;0.30;;;2.00;95.20;;;;;;4136218;28;20057;-85
2021/01/24 08:17:53;;;;;;;0.22;0.22;;;2.10;95.30;;;;;;4129698;28;20430;-85
2021/01/24 08:19:54;;;;;;;0.20;0.20;;;2.00;95.50;;;;;;4132884;28;20105;-86
2021/01/24 08:21:55;;;;;;;0.20;0.20;;;2.00;95.50;;;;;;4120213;28;20047;-86
2021/01/24 08:23:56;;;;;;;0.30;0.30;;;2.10;95.00;;;;;;4146299;28;20046;-87
2021/01/24 08:25:58;;;;;;;0.35;0.35;;;2.20;95.00;;;;;;4116790;28;20074;-89
2021/01/24 08:28:00;;;;;;;0.40;0.40;;;2.20;94.70;;;;;;4128804;28;20057;-85
2021/01/24 08:30:03;;;;;;;0.28;0.28;;;2.30;94.70;;;;;;4142032;28;20064;-86
2021/01/24 08:32:05;;;;;;;0.25;0.25;;;2.30;94.20;;;;;;4148501;28;20082;-85
2021/01/24 08:34:07;;;;;;;0.38;0.38;;;2.40;94.20;;;;;;4144820;28;20133;-91
2021/01/24 08:36:15;;;;;;;0.40;0.40;;;2.40;94.20;;;;;;4145527;28;20060;-89
2021/01/24 08:38:16;;;;;;;0.38;0.38;;;2.30;94.10;;;;;;4149633;28;20049;-85
2021/01/24 08:40:18;;;;;;;0.32;0.32;;;2.30;93.80;;;;;;4149196;28;20050;-85
2021/01/24 08:42:19;;;;;;;0.22;0.22;;;2.30;94.30;;;;;;4131367;28;20241;-85
2021/01/24 08:44:20;;;;;;;0.20;0.20;;;2.40;94.20;;;;;;4136369;28;20593;-86
2021/01/24 08:46:22;;;;;;;0.63;0.63;;;2.50;94.00;;;;;;4129355;28;20145;-86
2021/01/24 08:48:24;;;;;;;0.30;0.30;;;2.40;93.70;;;;;;4140829;28;20061;-88
2021/01/24 08:50:35;;;;;;;0.22;0.22;;;2.50;93.50;;;;;;4133004;28;20070;-83
2021/01/24 08:52:36;;;;;;;3.45;0.70;;;2.60;93.20;;;;;;4147295;28;20057;-87
2021/01/24 08:54:40;;;;;;;0.20;0.20;;;2.60;92.80;;;;;;4131112;28;20520;-89
2021/01/24 08:56:41;;;;;;;0.25;0.25;;;2.60;93.20;;;;;;4157104;28;20120;-88
2021/01/24 08:58:42;;;;;;;0.20;0.20;;;2.60;93.10;;;;;;4148499;28;20053;-85
2021/01/24 09:00:43;;;;;;;0.20;0.20;;;2.60;92.80;;;;;;4124436;28;20093;-89
2021/01/24 09:02:45;;;;;;;0.57;0.57;;;2.70;92.90;;;;;;4106478;28;20055;-86
2021/01/24 09:04:46;;;;;;;0.63;0.63;;;2.70;92.90;;;;;;4132516;28;20046;-84
2021/01/24 09:07:11;;;;;;;0.77;0.40;;;2.70;92.50;;;;;;4138257;28;20090;-87
2021/01/24 09:09:13;;;;;;;0.30;0.30;;;2.70;93.00;;;;;;4157534;28;20057;-84
2021/01/24 09:11:14;;;;;;;0.20;0.20;;;2.80;92.60;;;;;;4130698;28;20866;-91
2021/01/24 09:13:15;;;;;;;0.20;0.20;;;2.90;92.20;;;;;;4164314;28;20125;-86
2021/01/24 09:15:17;;;;;;;0.17;0.17;;;3.00;92.30;;;;;;4143748;28;20060;-83
2021/01/24 09:17:21;;;;;;;0.30;0.30;;;3.00;92.00;;;;;;4132085;28;20518;-83
2021/01/24 09:19:23;;;;;;;0.50;0.50;;;3.10;92.10;;;;;;4128494;28;20092;-83
2021/01/24 09:21:24;;;;;;;0.10;0.10;;;3.20;91.70;;;;;;4146863;28;20125;-81
2021/01/24 09:23:25;;;;;;;0.20;0.20;;;3.20;91.40;;;;;;4144641;28;20360;-83
2021/01/24 09:25:26;;;;;;;0.10;0.10;;;3.30;91.20;;;;;;4136257;28;20411;-83
2021/01/24 09:27:27;;;;;;;0.20;0.20;;;3.40;91.10;;;;;;4136481;28;20046;-83
2021/01/24 09:29:29;;;;;;;0.10;0.10;;;3.50;90.80;;;;;;4134335;28;20057;-83
2021/01/24 09:31:30;;;;;;;0.30;0.30;;;3.50;90.30;;;;;;4135705;28;20140;-82
2021/01/24 09:33:31;;;;;;;0.20;0.20;;;3.60;90.50;;;;;;4136569;28;20051;-83
2021/01/24 09:35:33;;;;;;;0.30;0.30;;;3.60;90.40;;;;;;4134744;28;20069;-83
2021/01/24 09:37:34;;;;;;;0.55;0.55;;;3.70;90.20;;;;;;4135133;28;20058;-82
2021/01/24 09:39:35;;;;;;;0.40;0.40;;;3.60;90.00;;;;;;4136998;28;20050;-83
2021/01/24 09:41:36;;;;;;;0.20;0.20;;;3.70;89.90;;;;;;4135075;28;20467;-82
2021/01/24 09:43:37;;;;;;;0.20;0.20;;;3.80;90.10;;;;;;4133625;28;20534;-81
2021/01/24 09:45:39;;;;;;;0.68;0.32;;;3.80;89.80;;;;;;4136907;28;20046;-82
2021/01/24 09:47:43;;;;;;;0.10;0.10;;;3.80;88.20;;;;;;4135925;28;20062;-83
2021/01/24 09:49:45;;;;;;;0.35;0.35;;;3.90;88.70;;;;;;4133644;28;20051;-83
2021/01/24 09:51:46;;;;;;;0.20;0.20;;;3.90;88.30;;;;;;4135134;28;20061;-83
2021/01/24 09:53:48;;;;;;;0.20;0.20;;;3.90;88.50;;;;;;4136230;28;20049;-83
2021/01/24 09:55:50;;;;;;;0.13;0.13;;;4.00;87.10;;;;;;4131137;28;20085;-82
2021/01/24 09:57:51;;;;;;;0.17;0.17;;;3.90;87.90;;;;;;4136306;28;20046;-83
2021/01/24 09:59:52;;;;;;;0.20;0.20;;;3.90;88.20;;;;;;4139947;28;20046;-81
2021/01/24 10:01:53;;;;;;;0.15;0.15;;;4.00;87.60;;;;;;4146970;28;20121;-82
2021/01/24 10:03:55;;;;;;;0.28;0.28;;;3.90;85.30;;;;;;4152587;28;20047;-80
2021/01/24 10:05:56;;;;;;;0.10;0.10;;;4.00;87.30;;;;;;4141005;28;20052;-83
2021/01/24 10:07:57;;;;;;;0.20;0.20;;;3.90;87.40;;;;;;4131172;28;20052;-83
2021/01/24 10:09:58;;;;;;;0.10;0.10;;;3.90;87.40;;;;;;4146397;28;20049;-83
2021/01/24 10:12:00;;;;;;;0.75;0.75;;;4.00;87.40;;;;;;4144722;28;20415;-83
2021/01/24 10:14:01;;;;;;;0.17;0.10;;;4.00;86.50;;;;;;4132233;28;20076;-83
2021/01/24 10:16:03;;;;;;;0.25;0.25;;;4.00;85.90;;;;;;4146558;28;20057;-84
2021/01/24 10:18:04;;;;;;;0.10;0.10;;;4.00;87.10;;;;;;4137658;28;20058;-83
2021/01/24 10:20:06;;;;;;;0.10;0.10;;;4.00;85.20;;;;;;4133272;28;20487;-84
2021/01/24 10:22:07;;;;;;;0.30;0.30;;;4.00;84.60;;;;;;4162867;28;20036;-77
2021/01/24 10:24:09;;;;;;;0.20;0.20;;;4.10;84.00;;;;;;4168331;28;20097;-77
2021/01/24 10:26:10;;;;;;;0.20;0.20;;;4.00;84.20;;;;;;4155315;28;20081;-84
2021/01/24 10:28:11;;;;;;;0.10;0.10;;;4.10;84.00;;;;;;4135824;28;20426;-81
2021/01/24 10:30:14;;;;;;;0.20;0.20;;;4.00;82.70;;;;;;4121985;28;20535;-84
2021/01/24 10:32:15;;;;;;;0.22;0.22;;;4.00;86.40;;;;;;4131956;28;20514;-83
2021/01/24 10:34:32;;;;;;;0.47;0.20;;;4.20;83.50;;;;;;4145460;28;20046;-83
2021/01/24 10:36:34;;;;;;;0.20;0.20;;;4.30;84.40;;;;;;4139782;28;20064;-83
2021/01/24 10:38:35;;;;;;;0.10;0.10;;;4.30;83.20;;;;;;4133237;28;20451;-83
2021/01/24 10:40:37;;;;;;;0.22;0.22;;;4.40;86.20;;;;;;4134033;28;20076;-83
2021/01/24 10:42:38;;;;;;;0.10;0.10;;;4.50;84.10;;;;;;4135155;28;20052;-82
2021/01/24 10:44:39;;;;;;;0.20;0.20;;;4.50;84.30;;;;;;4133862;28;20136;-84
2021/01/24 10:46:41;;;;;;;0.10;0.10;;;4.50;85.50;;;;;;4114263;28;20051;-83
2021/01/24 10:48:44;;;;;;;0.10;0.10;;;4.60;85.00;;;;;;4135968;28;20054;-83
2021/01/24 10:50:45;;;;;;;0.10;0.10;;;4.70;83.70;;;;;;4134004;28;20049;-83